Time;durP1;ratioP1;P1;durP2;ratioP2;P2;SDS_P1;SDS_P2;PMS_P1;PMS_P2;Temp;Humidity;BMP_temperature;BMP_pressure;BME280_temperature;BME280_humidity;BME280_pressure;Samples;Min_cycle;Max_cycle;Signal;HPM_P1;HPM_P2
2021/06/10 00:02:08;;;;;;;11.32;7.57;;;;;;;14.93;100.00;94592.03;10486539;28;20451;-74
2021/06/10 00:07:08;;;;;;;14.27;8.23;;;;;;;14.84;100.00;94590.03;10486299;28;20032;-74
2021/06/10 00:12:10;;;;;;;12.23;8.45;;;;;;;14.70;100.00;94583.84;10485778;28;20029;-74
2021/06/10 00:17:11;;;;;;;14.10;8.50;;;;;;;14.51;100.00;94579.34;10484800;28;20032;-74
2021/06/10 00:22:11;;;;;;;12.05;8.48;;;;;;;14.34;100.00;94579.97;10485826;28;20024;-74
2021/06/10 00:27:19;;;;;;;11.82;7.70;;;;;;;14.31;100.00;94555.41;10484927;28;20028;-74
2021/06/10 00:32:20;;;;;;;10.35;7.60;;;;;;;14.30;100.00;94554.63;10494441;28;20659;-74
2021/06/10 00:37:21;;;;;;;18.38;7.50;;;;;;;14.30;100.00;94553.81;10485202;28;20020;-74
2021/06/10 00:42:21;;;;;;;11.53;8.63;;;;;;;14.26;100.00;94545.50;10485587;28;20028;-74
2021/06/10 00:47:22;;;;;;;9.43;7.38;;;;;;;14.34;100.00;94544.81;10484391;28;20147;-74
2021/06/10 00:52:22;;;;;;;11.30;7.40;;;;;;;14.42;100.00;94535.16;10484973;28;20051;-74
2021/06/10 00:57:22;;;;;;;12.17;8.90;;;;;;;14.41;100.00;94528.16;10485497;28;20294;-75
2021/06/10 01:02:23;;;;;;;8.87;7.27;;;;;;;14.49;100.00;94529.38;10485212;28;20032;-74
2021/06/10 01:07:32;;;;;;;11.73;8.52;;;;;;;14.48;100.00;94528.56;10485128;28;20041;-74
2021/06/10 01:12:52;;;;;;;;;;;;;;;14.50;100.00;94537.16;10485291;28;20031;-74
2021/06/10 01:17:53;;;;;;;11.90;8.52;;;;;;;14.31;100.00;94533.78;10483435;28;19912;-74
2021/06/10 01:23:02;;;;;;;10.95;8.65;;;;;;;14.32;100.00;94535.41;10483838;28;20391;-73
2021/06/10 01:28:35;;;;;;;13.18;9.27;;;;;;;14.38;100.00;94541.50;10484158;28;20036;-73
2021/06/10 01:33:42;;;;;;;11.05;9.02;;;;;;;14.35;100.00;94548.31;10484146;28;20075;-74
2021/06/10 01:38:50;;;;;;;11.80;8.80;;;;;;;14.36;100.00;94548.00;10488822;28;20051;-74
2021/06/10 01:43:52;;;;;;;13.25;8.93;;;;;;;14.41;100.00;94555.19;10490557;28;20841;-73
2021/06/10 01:48:54;;;;;;;14.75;8.57;;;;;;;14.40;100.00;94560.91;10489746;28;20035;-74
2021/06/10 01:53:56;;;;;;;9.20;7.20;;;;;;;14.26;100.00;94561.72;10491200;28;20016;-74
2021/06/10 01:58:57;;;;;;;7.25;6.50;;;;;;;14.23;100.00;94550.72;10491016;28;20033;-73
2021/06/10 02:04:01;;;;;;;9.27;6.50;;;;;;;13.87;100.00;94546.78;10490637;28;20183;-74
2021/06/10 02:09:05;;;;;;;9.02;6.45;;;;;;;13.83;100.00;94549.28;10489707;28;20043;-74
2021/06/10 02:14:07;;;;;;;9.63;6.82;;;;;;;13.74;100.00;94542.94;10490669;28;20024;-73
2021/06/10 02:19:08;;;;;;;14.93;9.85;;;;;;;13.50;100.00;94556.59;10490178;28;20028;-74
2021/06/10 02:24:13;;;;;;;11.40;7.95;;;;;;;13.59;100.00;94571.03;10489882;28;20040;-74
2021/06/10 02:29:14;;;;;;;13.57;9.38;;;;;;;13.63;100.00;94579.34;10488842;28;20036;-74
2021/06/10 02:34:14;;;;;;;16.55;11.95;;;;;;;13.58;100.00;94574.84;10488547;28;20048;-74
2021/06/10 02:39:17;;;;;;;15.50;11.43;;;;;;;13.56;100.00;94579.72;10489095;28;20043;-74
2021/06/10 02:44:19;;;;;;;19.60;11.90;;;;;;;13.36;100.00;94588.97;10488690;28;20041;-74
2021/06/10 02:49:20;;;;;;;21.52;11.73;;;;;;;13.25;100.00;94593.66;10487904;28;20051;-74
2021/06/10 02:54:22;;;;;;;26.48;13.02;;;;;;;13.44;100.00;94603.69;10488689;28;20509;-74
2021/06/10 02:59:24;;;;;;;27.92;11.63;;;;;;;13.50;100.00;94595.19;10487511;28;20093;-74
2021/06/10 03:04:25;;;;;;;21.98;12.02;;;;;;;13.54;100.00;94594.63;10486318;28;20025;-74
2021/06/10 03:09:26;;;;;;;27.35;13.27;;;;;;;13.41;100.00;94594.28;10494220;28;20032;-74
2021/06/10 03:14:27;;;;;;;20.25;11.07;;;;;;;13.54;100.00;94586.53;10488300;28;20055;-74
2021/06/10 03:19:28;;;;;;;22.55;12.40;;;;;;;13.47;100.00;94590.41;10487600;28;20054;-75
2021/06/10 03:24:29;;;;;;;14.55;10.57;;;;;;;13.50;100.00;94587.09;10502783;28;20035;-75
2021/06/10 03:29:29;;;;;;;17.20;10.57;;;;;;;13.46;100.00;94577.97;10487091;28;20727;-75
2021/06/10 03:34:32;;;;;;;19.85;12.07;;;;;;;13.45;100.00;94572.88;10486644;28;20060;-74
2021/06/10 03:39:37;;;;;;;15.93;10.30;;;;;;;13.56;100.00;94576.22;10487020;28;20028;-73
2021/06/10 03:44:38;;;;;;;18.42;10.90;;;;;;;13.65;100.00;94571.75;10486376;28;20033;-74
2021/06/10 03:49:38;;;;;;;17.35;11.45;;;;;;;13.80;100.00;94574.19;10486571;28;20036;-74
2021/06/10 03:54:39;;;;;;;20.60;11.15;;;;;;;13.95;100.00;94567.72;10486381;28;20025;-78
2021/06/10 03:59:39;;;;;;;20.83;10.30;;;;;;;13.98;100.00;94569.00;10485692;28;20028;-74
2021/06/10 04:04:39;;;;;;;11.97;8.67;;;;;;;14.15;100.00;94571.94;10483771;28;20283;-75
2021/06/10 04:09:40;;;;;;;13.77;9.53;;;;;;;14.36;100.00;94568.84;10485198;28;20028;-75
2021/06/10 04:14:40;;;;;;;10.70;7.40;;;;;;;14.71;100.00;94558.41;10484399;28;20032;-75
2021/06/10 04:19:41;;;;;;;13.88;8.25;;;;;;;15.06;100.00;94558.72;10485824;28;20017;-75
2021/06/10 04:24:42;;;;;;;12.00;7.60;;;;;;;15.60;100.00;94550.69;10485688;28;20031;-75
2021/06/10 04:29:43;;;;;;;10.80;7.47;;;;;;;16.22;100.00;94551.81;10483489;28;20123;-75
2021/06/10 04:34:43;;;;;;;17.05;8.60;;;;;;;16.86;100.00;94547.81;10485458;28;20427;-75
2021/06/10 04:39:44;;;;;;;26.03;8.67;;;;;;;17.42;100.00;94550.72;10485322;28;20035;-75
2021/06/10 04:44:44;;;;;;;16.90;8.65;;;;;;;17.90;100.00;94548.88;10483715;28;20048;-74
2021/06/10 04:49:44;;;;;;;10.80;8.00;;;;;;;18.35;100.00;94547.63;10484988;28;20111;-74
2021/06/10 04:54:45;;;;;;;17.02;8.40;;;;;;;18.93;100.00;94543.31;10485120;28;20586;-74
2021/06/10 04:59:45;;;;;;;16.13;7.13;;;;;;;19.32;100.00;94542.41;10483581;28;20441;-74
2021/06/10 05:04:45;;;;;;;11.73;7.10;;;;;;;19.62;100.00;94541.16;10485134;28;20458;-74
2021/06/10 05:09:46;;;;;;;14.70;6.90;;;;;;;20.05;100.00;94552.00;10484807;28;20455;-74
2021/06/10 05:14:46;;;;;;;9.07;7.13;;;;;;;20.84;100.00;94549.09;10490416;28;20106;-73
2021/06/10 05:19:47;;;;;;;15.57;8.13;;;;;;;21.25;100.00;94540.94;10491667;28;20339;-73
2021/06/10 05:24:47;;;;;;;15.17;6.73;;;;;;;21.67;100.00;94541.38;10491600;28;20298;-73
2021/06/10 05:29:47;;;;;;;8.03;5.33;;;;;;;21.32;100.00;94550.16;10492178;28;20289;-73
2021/06/10 05:34:48;;;;;;;7.20;5.17;;;;;;;21.27;100.00;94544.91;10490418;28;20056;-73
2021/06/10 05:39:48;;;;;;;9.43;5.03;;;;;;;21.64;100.00;94547.56;10491767;28;20028;-73
2021/06/10 05:44:49;;;;;;;8.15;5.40;;;;;;;22.16;100.00;94545.81;10489619;28;20339;-73
2021/06/10 05:49:49;;;;;;;16.40;6.43;;;;;;;22.86;98.61;94546.34;10490069;28;20036;-74
2021/06/10 05:54:50;;;;;;;10.43;5.37;;;;;;;23.55;91.26;94535.69;10489682;28;20046;-73
2021/06/10 05:59:51;;;;;;;10.55;6.25;;;;;;;24.06;85.51;94536.69;10490359;28;20282;-73
2021/06/10 06:04:51;;;;;;;10.20;6.47;;;;;;;24.42;89.56;94550.22;10489344;28;20063;-73
2021/06/10 06:09:52;;;;;;;11.67;6.70;;;;;;;24.72;80.99;94548.41;10489681;28;20796;-73
2021/06/10 06:14:52;;;;;;;14.57;6.85;;;;;;;25.55;75.57;94543.28;10489394;28;20081;-75
2021/06/10 06:19:57;;;;;;;13.40;6.50;;;;;;;26.19;67.65;94540.50;10489495;28;20057;-75
2021/06/10 06:24:57;;;;;;;16.33;7.47;;;;;;;26.34;63.51;94535.91;10490338;28;20756;-75
2021/06/10 06:29:57;;;;;;;14.87;6.17;;;;;;;26.74;67.46;94539.81;10489142;28;20061;-75
2021/06/10 06:34:58;;;;;;;16.93;6.40;;;;;;;26.60;68.26;94548.75;10488365;28;20395;-75
2021/06/10 06:39:59;;;;;;;20.03;7.07;;;;;;;25.66;71.80;94559.94;10489972;28;20573;-75
2021/06/10 06:45:00;;;;;;;12.68;7.25;;;;;;;24.67;82.44;94565.22;10488548;28;20127;-75
2021/06/10 06:50:01;;;;;;;14.60;7.65;;;;;;;25.93;77.87;94558.69;10488861;28;20033;-75
2021/06/10 06:55:01;;;;;;;10.65;6.35;;;;;;;26.90;64.11;94558.88;10488828;28;20407;-75
2021/06/10 07:00:04;;;;;;;13.50;6.60;;;;;;;26.29;63.76;94561.06;10489001;28;20028;-75
2021/06/10 07:05:05;;;;;;;16.35;6.57;;;;;;;25.46;74.98;94567.56;10488683;28;20399;-75
2021/06/10 07:10:06;;;;;;;15.13;6.38;;;;;;;25.55;77.39;94570.81;10488380;28;20111;-75
2021/06/10 07:15:07;;;;;;;5.45;4.43;;;;;;;26.91;65.76;94570.69;10488510;28;20016;-75
2021/06/10 07:20:08;;;;;;;10.52;5.15;;;;;;;29.03;50.32;94578.97;10488169;28;20028;-76
2021/06/10 07:25:09;;;;;;;7.63;5.07;;;;;;;30.12;46.28;94591.38;10486960;28;20028;-75
2021/06/10 07:30:10;;;;;;;10.23;4.68;;;;;;;29.92;47.81;94598.59;10486767;28;20024;-75
2021/06/10 07:35:11;;;;;;;9.27;4.55;;;;;;;29.93;49.04;94608.50;10487399;28;20151;-75
2021/06/10 07:40:12;;;;;;;10.40;4.25;;;;;;;29.62;51.32;94611.72;10502421;28;20586;-75
2021/06/10 07:45:13;;;;;;;4.95;3.58;;;;;;;30.61;45.68;94618.50;10488661;28;20077;-75
2021/06/10 07:50:14;;;;;;;4.88;3.53;;;;;;;29.30;44.65;94615.38;10488542;28;20032;-75
2021/06/10 07:55:14;;;;;;;5.10;2.67;;;;;;;27.36;44.91;94615.53;10487774;28;20035;-75
2021/06/10 08:00:16;;;;;;;5.27;3.00;;;;;;;25.31;54.25;94632.56;10488068;28;20036;-75
2021/06/10 08:05:16;;;;;;;6.85;3.60;;;;;;;24.06;58.95;94641.78;10487847;28;20291;-75
2021/06/10 08:10:16;;;;;;;5.07;3.20;;;;;;;22.91;65.31;94646.66;10487023;28;20029;-76
2021/06/10 08:15:17;;;;;;;4.33;3.10;;;;;;;22.65;73.36;94637.03;10487380;28;20104;-75
2021/06/10 08:20:19;;;;;;;5.38;3.00;;;;;;;22.64;66.77;94640.91;10486342;28;20300;-76
2021/06/10 08:25:19;;;;;;;11.32;3.50;;;;;;;22.85;72.55;94635.94;10485974;28;20163;-75
2021/06/10 08:30:20;;;;;;;5.47;4.03;;;;;;;22.82;83.42;94649.56;10512273;28;20081;-79
2021/06/10 08:35:21;;;;;;;9.52;4.78;;;;;;;22.79;89.39;94655.78;10510100;28;20048;-79
2021/06/10 08:40:21;;;;;;;6.50;5.10;;;;;;;21.85;100.00;94658.69;10508269;28;20403;-79
2021/06/10 08:45:27;;;;;;;9.88;5.65;;;;;;;20.61;100.00;94666.97;10508278;28;20030;-79
2021/06/10 08:50:28;;;;;;;12.90;6.00;;;;;;;20.26;100.00;94674.72;10532936;28;20028;-79
2021/06/10 08:55:29;;;;;;;6.50;5.53;;;;;;;20.22;100.00;94677.34;10518462;28;20104;-79
2021/06/10 09:00:30;;;;;;;9.45;4.93;;;;;;;20.21;100.00;94678.44;10519152;28;20032;-79
2021/06/10 09:05:31;;;;;;;6.65;4.20;;;;;;;19.54;100.00;94658.47;10518646;28;20039;-82
2021/06/10 09:10:34;;;;;;;5.43;4.60;;;;;;;18.84;100.00;94658.84;10518338;28;20029;-79
2021/06/10 09:15:38;;;;;;;5.95;3.08;;;;;;;18.45;100.00;94648.75;10513076;28;20103;-79
2021/06/10 09:20:45;;;;;;;7.00;4.85;;;;;;;18.70;100.00;94648.97;10513310;28;20027;-80
2021/06/10 09:25:58;;;;;;;9.63;4.75;;;;;;;19.00;100.00;94638.13;10512923;28;20019;-79
2021/06/10 09:30:59;;;;;;;5.32;3.17;;;;;;;19.46;100.00;94646.50;10513031;28;20033;-79
2021/06/10 09:36:03;;;;;;;3.92;2.92;;;;;;;20.00;97.62;94645.75;10514980;28;20016;-79
2021/06/10 09:41:06;;;;;;;7.00;2.75;;;;;;;21.77;81.04;94637.75;10515113;28;20024;-79
2021/06/10 09:46:07;;;;;;;3.38;2.72;;;;;;;23.52;66.54;94628.88;10513516;28;20561;-74
2021/06/10 09:51:21;;;;;;;5.00;2.63;;;;;;;26.84;53.89;94621.03;10512732;28;20095;-74
2021/06/10 09:56:21;;;;;;;2.15;1.27;;;;;;;29.46;40.52;94614.94;10510842;28;20263;-74
2021/06/10 10:01:23;;;;;;;1.20;0.80;;;;;;;31.83;34.55;94609.16;10514110;28;20039;-74
2021/06/10 10:06:30;;;;;;;2.58;1.00;;;;;;;34.66;30.97;94589.38;10511257;28;20157;-74
2021/06/10 10:11:34;;;;;;;6.93;1.30;;;;;;;35.70;27.92;94575.66;10499941;28;20024;-74
2021/06/10 10:16:38;;;;;;;1.40;0.90;;;;;;;36.12;26.69;94591.69;10512630;28;20027;-74
2021/06/10 10:21:39;;;;;;;1.35;0.95;;;;;;;36.35;27.20;94578.66;10509885;28;20479;-74
2021/06/10 10:26:41;;;;;;;0.73;0.73;;;;;;;36.25;26.78;94574.94;10493234;28;20122;-74
2021/06/10 10:31:43;;;;;;;0.82;0.70;;;;;;;36.17;26.81;94574.38;10492026;28;20045;-74
2021/06/10 10:36:45;;;;;;;0.75;0.75;;;;;;;35.82;25.95;94571.38;10538087;28;20398;-80
2021/06/10 10:41:53;;;;;;;1.17;1.00;;;;;;;35.12;28.22;94556.78;10532944;28;20032;-80
2021/06/10 10:47:03;;;;;;;3.70;1.08;;;;;;;35.00;28.92;94557.47;10534190;28;20107;-80
2021/06/10 10:52:21;;;;;;;1.98;0.70;;;;;;;35.92;27.78;94550.69;10533075;28;20024;-80
2021/06/10 10:57:30;;;;;;;2.30;0.75;;;;;;;33.17;28.73;94554.41;10535075;28;20380;-80
2021/06/10 11:02:31;;;;;;;0.68;0.68;;;;;;;30.91;32.10;94551.28;10533102;28;20471;-79
2021/06/10 11:07:40;;;;;;;0.97;0.90;;;;;;;27.94;32.34;94550.34;10533520;28;20027;-79
2021/06/10 11:12:41;;;;;;;1.67;1.05;;;;;;;27.10;38.73;94559.38;10531807;28;20020;-80
2021/06/10 11:17:45;;;;;;;1.58;1.20;;;;;;;26.34;35.75;94548.91;10531542;28;20024;-79
2021/06/10 11:22:50;;;;;;;1.83;1.10;;;;;;;25.18;37.20;94549.47;10531074;28;20546;-79
2021/06/10 11:27:53;;;;;;;5.90;1.17;;;;;;;25.02;39.70;94535.88;10531972;28;20051;-79
2021/06/10 11:32:59;;;;;;;2.28;1.42;;;;;;;24.67;41.24;94523.19;10532096;28;20044;-79
2021/06/10 11:38:03;;;;;;;2.60;1.23;;;;;;;24.72;41.35;94525.63;10532551;28;20031;-79
2021/06/10 11:43:05;;;;;;;4.40;1.40;;;;;;;25.00;38.75;94513.47;10530688;28;20030;-79
2021/06/10 11:48:06;;;;;;;3.63;1.40;;;;;;;25.17;38.99;94495.63;10532461;28;20035;-79
2021/06/10 11:53:09;;;;;;;1.25;1.10;;;;;;;25.24;39.92;94485.53;10530882;28;20058;-80
2021/06/10 11:58:11;;;;;;;1.38;1.15;;;;;;;24.84;38.59;94486.13;10531916;28;20451;-79
2021/06/10 12:03:15;;;;;;;5.38;1.35;;;;;;;24.06;41.67;94477.06;10531730;28;20487;-80
2021/06/10 12:08:27;;;;;;;1.38;1.27;;;;;;;23.92;42.41;94471.34;10531234;28;20074;-80
2021/06/10 12:13:38;;;;;;;1.48;1.20;;;;;;;24.12;40.81;94476.78;10529191;28;20028;-80
2021/06/10 12:18:41;;;;;;;2.45;1.50;;;;;;;24.60;44.88;94460.66;10528360;28;20024;-79
2021/06/10 12:23:45;;;;;;;1.40;1.20;;;;;;;24.60;39.65;94457.09;10529226;28;20039;-79
2021/06/10 12:28:51;;;;;;;1.25;1.10;;;;;;;24.32;39.55;94455.50;10529206;28;20027;-80
2021/06/10 12:34:09;;;;;;;3.28;1.50;;;;;;;24.52;41.00;94450.72;10530937;28;20052;-80
2021/06/10 12:39:15;;;;;;;1.95;1.60;;;;;;;24.73;41.98;94453.81;10531119;28;20486;-79
2021/06/10 12:44:17;;;;;;;1.77;1.40;;;;;;;24.50;43.67;94456.59;10535623;28;20475;-79
2021/06/10 12:49:23;;;;;;;4.70;1.77;;;;;;;24.44;50.07;94460.81;10531169;28;20442;-79
2021/06/10 12:54:32;;;;;;;6.93;1.63;;;;;;;24.31;45.22;94471.22;10530601;28;20790;-79
2021/06/10 12:59:36;;;;;;;2.30;1.40;;;;;;;24.67;46.94;94465.47;10530362;28;20024;-79
2021/06/10 13:04:40;;;;;;;4.55;1.80;;;;;;;25.13;47.15;94464.53;10530215;28;20154;-78
2021/06/10 13:09:45;;;;;;;2.67;2.05;;;;;;;25.62;45.00;94460.84;10530595;28;20035;-79
2021/06/10 13:15:19;;;;;;;2.00;1.30;;;;;;;24.88;45.59;94456.75;10528249;28;20020;-79
2021/06/10 13:20:41;;;;;;;4.05;2.13;;;;;;;24.42;52.28;94456.84;10518321;28;20072;-79
2021/06/10 13:25:43;;;;;;;4.88;2.75;;;;;;;25.01;55.78;94443.59;10530081;28;20034;-79
2021/06/10 13:30:48;;;;;;;4.55;2.53;;;;;;;25.46;54.90;94441.00;10528831;28;20073;-79
2021/06/10 13:35:50;;;;;;;6.30;3.15;;;;;;;25.53;53.82;94443.81;10537428;28;20044;-80
2021/06/10 13:40:50;;;;;;;4.65;2.53;;;;;;;25.68;55.89;94451.06;10538269;28;20396;-79
2021/06/10 13:45:51;;;;;;;7.43;3.27;;;;;;;25.63;57.92;94448.63;10537560;28;20036;-79
2021/06/10 13:50:51;;;;;;;3.50;3.10;;;;;;;25.64;60.69;94450.22;10537209;28;20032;-79
2021/06/10 13:55:55;;;;;;;5.37;3.87;;;;;;;25.55;67.46;94456.03;10536374;28;20102;-79
2021/06/10 14:00:56;;;;;;;8.02;3.88;;;;;;;25.49;71.69;94451.25;10533808;28;20077;-79
2021/06/10 14:05:56;;;;;;;16.52;3.95;;;;;;;25.54;71.67;94448.16;10533911;28;20544;-79
2021/06/10 14:10:56;;;;;;;6.97;3.87;;;;;;;25.26;75.47;94438.38;10534352;28;20096;-80
2021/06/10 14:15:57;;;;;;;6.33;3.53;;;;;;;25.39;65.03;94437.00;10533702;28;20032;-79
2021/06/10 14:20:57;;;;;;;4.10;3.17;;;;;;;25.34;62.84;94437.34;10534399;28;20055;-79
2021/06/10 14:25:57;;;;;;;5.27;3.00;;;;;;;25.10;63.88;94427.56;10533661;28;20661;-80
2021/06/10 14:36:17;;;;;;;5.13;3.47;;;;;;;24.63;69.65;94439.91;10532921;28;20455;-80
2021/06/10 14:41:18;;;;;;;6.15;3.63;;;;;;;24.36;71.31;94437.94;10532099;28;20035;-80
2021/06/10 14:46:19;;;;;;;4.60;3.35;;;;;;;24.03;72.91;94430.34;10533140;28;20032;-80
2021/06/10 14:51:19;;;;;;;6.28;3.70;;;;;;;23.75;77.32;94447.88;10532729;28;20032;-80
2021/06/10 14:56:20;;;;;;;5.50;3.83;;;;;;;23.42;77.97;94445.69;10532892;28;20024;-80
2021/06/10 15:01:20;;;;;;;5.23;4.00;;;;;;;23.08;80.58;94443.44;10532778;28;20045;-80
2021/06/10 15:06:20;;;;;;;8.67;4.50;;;;;;;22.94;88.37;94448.63;10532081;28;20040;-80
2021/06/10 15:11:21;;;;;;;5.82;4.32;;;;;;;22.91;85.39;94457.56;10532072;28;20278;-80
2021/06/10 15:16:21;;;;;;;11.80;4.50;;;;;;;22.74;83.64;94450.56;10532399;28;20028;-80
2021/06/10 15:21:22;;;;;;;5.87;3.40;;;;;;;22.63;85.34;94448.38;10531737;28;20134;-80
2021/06/10 15:26:23;;;;;;;6.68;4.10;;;;;;;22.52;90.28;94450.88;10531416;28;20346;-80
2021/06/10 15:31:23;;;;;;;4.93;3.45;;;;;;;22.38;88.76;94447.78;10531210;28;20080;-80
2021/06/10 15:36:24;;;;;;;9.65;4.20;;;;;;;22.39;89.40;94448.59;10530902;28;20024;-80
2021/06/10 15:41:24;;;;;;;5.70;4.32;;;;;;;22.34;91.49;94455.13;10529682;28;20103;-80
2021/06/10 15:46:25;;;;;;;5.82;3.83;;;;;;;22.32;85.57;94460.91;10529347;28;20035;-80
2021/06/10 15:51:30;;;;;;;6.53;4.22;;;;;;;22.14;87.45;94470.66;10531295;28;20088;-80
2021/06/10 15:56:30;;;;;;;5.32;3.55;;;;;;;21.70;93.42;94457.84;10530485;28;20035;-80
2021/06/10 16:01:31;;;;;;;5.80;3.47;;;;;;;21.57;93.72;94456.31;10530821;28;20549;-80
2021/06/10 16:06:31;;;;;;;6.13;4.38;;;;;;;21.54;99.14;94457.81;10529098;28;20855;-80
2021/06/10 16:11:32;;;;;;;4.20;3.30;;;;;;;21.45;100.00;94455.22;10530186;28;20031;-80
2021/06/10 16:16:32;;;;;;;10.43;4.27;;;;;;;21.20;100.00;94461.94;10530392;28;20112;-80
2021/06/10 16:21:32;;;;;;;6.90;4.40;;;;;;;20.98;100.00;94461.31;10530544;28;20384;-80
2021/06/10 16:26:33;;;;;;;5.93;3.63;;;;;;;20.88;100.00;94467.28;10526358;28;20566;-80
2021/06/10 16:31:33;;;;;;;4.57;3.80;;;;;;;20.82;100.00;94469.44;10527472;28;20051;-80
2021/06/10 16:36:34;;;;;;;7.97;4.47;;;;;;;20.76;100.00;94466.16;10527937;28;20799;-80
2021/06/10 16:41:34;;;;;;;6.97;4.20;;;;;;;20.69;100.00;94473.34;10528596;28;20178;-80
2021/06/10 16:46:35;;;;;;;7.73;4.13;;;;;;;20.59;100.00;94482.75;10528661;28;20150;-80
2021/06/10 16:51:35;;;;;;;9.77;4.43;;;;;;;20.65;100.00;94504.03;10528324;28;20270;-80
2021/06/10 16:56:36;;;;;;;9.18;4.18;;;;;;;20.65;100.00;94504.03;10528680;28;20028;-80
2021/06/10 17:06:51;;;;;;;6.57;4.43;;;;;;;20.39;100.00;94519.97;10532914;28;20278;-80
2021/06/10 17:11:53;;;;;;;5.25;4.38;;;;;;;20.05;100.00;94527.44;10551339;28;20052;-80
2021/06/10 17:16:55;;;;;;;7.68;4.60;;;;;;;19.75;100.00;94517.47;10536388;28;20024;-80
2021/06/10 17:21:56;;;;;;;12.43;4.97;;;;;;;19.66;100.00;94524.13;10535481;28;20115;-80
2021/06/10 17:26:59;;;;;;;12.82;4.45;;;;;;;19.55;100.00;94530.00;10523194;28;20031;-80
2021/06/10 17:32:00;;;;;;;14.82;4.15;;;;;;;19.41;100.00;94513.94;10518270;28;20460;-80
2021/06/10 17:37:00;;;;;;;8.67;4.80;;;;;;;19.53;100.00;94515.91;10518492;28;20016;-80
2021/06/10 17:42:01;;;;;;;6.38;3.83;;;;;;;19.38;100.00;94525.53;10515482;28;20028;-79
2021/06/10 17:47:05;;;;;;;8.48;5.55;;;;;;;19.22;100.00;94528.06;10512619;28;20024;-80
2021/06/10 17:52:09;;;;;;;9.30;5.90;;;;;;;19.13;100.00;94530.03;10513263;28;20502;-80
2021/06/10 17:57:10;;;;;;;7.47;5.57;;;;;;;19.17;100.00;94528.25;10514194;28;20165;-80
2021/06/10 18:02:10;;;;;;;13.67;5.07;;;;;;;19.22;100.00;94538.94;10514483;28;20081;-80
2021/06/10 18:07:11;;;;;;;8.85;5.43;;;;;;;19.23;100.00;94546.00;10512950;28;20035;-79
2021/06/10 18:12:11;;;;;;;9.23;4.97;;;;;;;19.21;100.00;94531.91;10513003;28;20012;-80
2021/06/10 18:17:12;;;;;;;8.73;4.30;;;;;;;18.91;100.00;94539.34;10511212;28;20020;-79
2021/06/10 18:22:12;;;;;;;6.95;4.72;;;;;;;18.93;100.00;94548.75;10511721;28;20275;-80
2021/06/10 18:27:13;;;;;;;11.40;4.47;;;;;;;18.90;100.00;94556.81;10513005;28;20108;-80
2021/06/10 18:32:13;;;;;;;9.47;4.60;;;;;;;18.71;100.00;94562.66;10510224;28;20480;-80
2021/06/10 18:37:15;;;;;;;6.13;4.50;;;;;;;18.47;100.00;94574.94;10512179;28;20020;-80
2021/06/10 18:42:15;;;;;;;9.77;5.28;;;;;;;18.37;100.00;94569.88;10522911;28;20077;-80
2021/06/10 18:47:16;;;;;;;8.37;5.80;;;;;;;18.50;100.00;94582.44;10513491;28;20123;-80
2021/06/10 18:52:17;;;;;;;9.65;5.30;;;;;;;18.65;100.00;94585.75;10502679;28;20262;-80
2021/06/10 18:57:17;;;;;;;13.43;4.45;;;;;;;18.55;100.00;94593.16;10530782;28;20406;-79
2021/06/10 19:02:18;;;;;;;9.32;5.55;;;;;;;18.52;100.00;94585.66;10527614;28;20031;-79
2021/06/10 19:07:18;;;;;;;10.00;5.30;;;;;;;18.50;100.00;94609.66;10515041;28;20562;-74
2021/06/10 19:12:19;;;;;;;10.33;6.17;;;;;;;18.40;100.00;94616.25;10518573;28;20036;-83
2021/06/10 19:17:21;;;;;;;9.27;5.40;;;;;;;18.40;100.00;94623.63;10506959;28;20032;-83
2021/06/10 19:22:21;;;;;;;15.85;6.18;;;;;;;18.38;100.00;94639.50;10495771;28;20029;-84
2021/06/10 19:27:24;;;;;;;13.48;5.32;;;;;;;18.37;100.00;94629.72;10491163;28;20025;-74
2021/06/10 19:32:35;;;;;;;8.98;5.70;;;;;;;18.27;100.00;94631.66;10487353;28;20052;-74
2021/06/10 19:37:37;;;;;;;11.70;6.50;;;;;;;18.23;100.00;94641.59;10500764;28;20226;-74
2021/06/10 19:42:38;;;;;;;13.60;6.43;;;;;;;18.25;100.00;94644.00;10508251;28;20043;-74
2021/06/10 19:47:39;;;;;;;10.70;6.53;;;;;;;18.18;100.00;94647.25;10529480;28;20024;-74
2021/06/10 19:52:40;;;;;;;10.35;6.20;;;;;;;18.08;100.00;94645.66;10531333;28;20081;-74
2021/06/10 19:57:41;;;;;;;10.90;6.50;;;;;;;18.03;100.00;94650.44;10530181;28;20132;-74
2021/06/10 20:02:42;;;;;;;15.57;7.28;;;;;;;17.76;100.00;94644.22;10530673;28;20111;-74
2021/06/10 20:07:42;;;;;;;18.98;7.13;;;;;;;17.56;100.00;94651.09;10535585;28;20031;-74
2021/06/10 20:12:44;;;;;;;13.70;7.73;;;;;;;17.41;100.00;94655.91;10530307;28;20032;-75
2021/06/10 20:17:44;;;;;;;11.50;7.18;;;;;;;17.47;100.00;94658.44;10530617;28;20032;-75
2021/06/10 20:22:45;;;;;;;14.93;7.77;;;;;;;17.56;100.00;94657.31;10530288;28;20032;-75
2021/06/10 20:33:07;;;;;;;12.23;7.20;;;;;;;17.48;100.00;94649.97;10530075;28;20503;-74
2021/06/10 20:38:09;;;;;;;12.55;7.00;;;;;;;17.37;100.00;94649.50;10529866;28;20785;-74
2021/06/10 20:43:09;;;;;;;11.50;7.05;;;;;;;17.39;100.00;94649.19;10536311;28;20050;-75
2021/06/10 20:48:10;;;;;;;11.98;6.28;;;;;;;17.30;100.00;94645.63;10538575;28;20043;-75
2021/06/10 20:53:11;;;;;;;13.85;8.63;;;;;;;17.19;100.00;94642.41;10537315;28;20213;-74
2021/06/10 20:58:11;;;;;;;16.45;7.40;;;;;;;17.03;100.00;94633.94;10537924;28;20020;-75
2021/06/10 21:03:11;;;;;;;17.27;9.13;;;;;;;16.91;100.00;94632.66;10537855;28;20028;-75
2021/06/10 21:08:12;;;;;;;17.33;7.50;;;;;;;16.91;100.00;94632.66;10538109;28;20034;-74
2021/06/10 21:13:12;;;;;;;11.95;7.70;;;;;;;16.87;100.00;94631.66;10537960;28;20456;-75
2021/06/10 21:18:13;;;;;;;12.07;7.88;;;;;;;16.76;100.00;94624.91;10537489;28;20418;-74
2021/06/10 21:23:13;;;;;;;17.60;7.10;;;;;;;16.73;100.00;94634.47;10537427;28;20111;-74
2021/06/10 21:28:14;;;;;;;10.63;6.53;;;;;;;16.65;100.00;94637.16;10536709;28;20032;-74
2021/06/10 21:33:14;;;;;;;7.90;6.38;;;;;;;16.49;100.00;94621.28;10537267;28;20048;-75
2021/06/10 21:38:15;;;;;;;7.68;5.60;;;;;;;16.23;100.00;94632.03;10536621;28;20028;-74
2021/06/10 21:43:16;;;;;;;10.32;6.55;;;;;;;16.12;100.00;94636.13;10508729;28;20032;-74
2021/06/10 21:48:17;;;;;;;6.68;5.55;;;;;;;15.99;100.00;94644.03;10494885;28;20058;-74
2021/06/10 21:53:20;;;;;;;9.13;5.63;;;;;;;16.05;100.00;94645.50;10493299;28;20028;-74
2021/06/10 21:58:21;;;;;;;9.43;5.57;;;;;;;15.80;100.00;94629.88;10518840;28;20036;-75
2021/06/10 22:03:21;;;;;;;16.53;7.60;;;;;;;15.70;100.00;94628.19;10536091;28;20024;-75
2021/06/10 22:08:22;;;;;;;10.43;7.53;;;;;;;15.53;100.00;94624.25;10535330;28;20110;-75
2021/06/10 22:13:22;;;;;;;12.50;7.90;;;;;;;15.41;100.00;94621.28;10535139;28;20024;-74
2021/06/10 22:18:22;;;;;;;24.63;9.63;;;;;;;15.31;100.00;94627.72;10535932;28;20058;-74
2021/06/10 22:23:24;;;;;;;11.73;7.43;;;;;;;15.38;100.00;94622.69;10535103;28;20032;-74
2021/06/10 22:28:29;;;;;;;14.63;9.02;;;;;;;15.29;100.00;94613.66;10534182;28;20325;-74
2021/06/10 22:33:30;;;;;;;11.60;7.32;;;;;;;15.32;100.00;94615.78;10535041;28;20048;-74
2021/06/10 22:38:32;;;;;;;14.30;7.32;;;;;;;15.43;100.00;94621.75;10534428;28;20060;-74
2021/06/10 22:43:35;;;;;;;10.25;6.25;;;;;;;15.50;100.00;94622.16;10504075;28;20028;-75
2021/06/10 22:48:37;;;;;;;10.65;6.88;;;;;;;15.47;100.00;94613.81;10491810;28;20410;-74
2021/06/10 22:53:40;;;;;;;11.88;5.82;;;;;;;15.39;100.00;94607.22;10491578;28;20091;-74
2021/06/10 22:58:42;;;;;;;15.50;6.15;;;;;;;15.30;100.00;94604.44;10517316;28;20516;-74
2021/06/10 23:03:43;;;;;;;9.40;6.07;;;;;;;15.25;100.00;94606.47;10533803;28;20032;-74
2021/06/10 23:08:44;;;;;;;10.02;6.70;;;;;;;15.27;100.00;94607.78;10532870;28;20031;-75
2021/06/10 23:13:45;;;;;;;8.50;5.93;;;;;;;15.31;100.00;94614.19;10533513;28;20028;-74
2021/06/10 23:18:45;;;;;;;9.10;6.07;;;;;;;15.30;100.00;94611.78;10533111;28;20498;-75
2021/06/10 23:23:45;;;;;;;12.63;6.03;;;;;;;15.27;100.00;94607.78;10532686;28;20282;-74